createdAt,value
2022-09-17T00:00:26.868Z,244.90
2022-09-17T00:02:55.676Z,235.53
2022-09-17T00:05:24.431Z,221.63
2022-09-17T00:07:53.305Z,239.53
2022-09-17T00:10:23.095Z,232.27
2022-09-17T00:12:51.355Z,220.67
2022-09-17T00:15:18.976Z,227.63
2022-09-17T00:17:46.512Z,242.27
2022-09-17T00:20:14.010Z,202.03
2022-09-17T00:22:41.511Z,239.90
2022-09-17T00:25:10.435Z,216.93
2022-09-17T00:27:37.948Z,241.27
2022-09-17T00:30:06.582Z,226.80
2022-09-17T00:32:34.076Z,277.83
2022-09-17T00:35:01.575Z,257.20
2022-09-17T00:37:29.075Z,238.07
2022-09-17T00:39:56.700Z,251.60
2022-09-17T00:42:25.647Z,237.77
2022-09-17T00:44:54.587Z,242.60
2022-09-17T00:47:26.324Z,240.07
2022-09-17T00:49:57.724Z,239.63
2022-09-17T00:52:28.316Z,253.77
2022-09-17T00:55:01.354Z,231.03
2022-09-17T00:57:31.724Z,203.67
2022-09-17T00:59:59.468Z,245.10
2022-09-17T01:02:27.254Z,202.70
2022-09-17T01:04:55.930Z,236.70
2022-09-17T01:07:44.151Z,242.67
2022-09-17T01:10:20.299Z,244.37
2022-09-17T01:13:03.060Z,210.20
2022-09-17T01:15:35.268Z,219.23
2022-09-17T01:18:22.495Z,228.67
2022-09-17T01:21:14.447Z,216.73
2022-09-17T01:23:55.029Z,238.40
2022-09-17T01:26:39.939Z,211.77
2022-09-17T01:29:14.880Z,243.23
2022-09-17T01:31:46.952Z,238.40
2022-09-17T01:34:20.906Z,244.43
2022-09-17T01:37:00.335Z,251.30
2022-09-17T01:39:34.249Z,279.10
2022-09-17T01:42:08.014Z,242.37
2022-09-17T01:44:38.486Z,244.93
2022-09-17T01:47:12.164Z,241.93
2022-09-17T01:49:40.119Z,250.20
2022-09-17T01:52:08.562Z,247.33
2022-09-17T01:54:41.909Z,257.20
2022-09-17T01:57:13.474Z,243.23
2022-09-17T01:59:43.786Z,251.23
2022-09-17T02:02:16.193Z,242.90
2022-09-17T02:04:47.383Z,253.10
2022-09-17T02:07:20.042Z,243.83
2022-09-17T02:09:51.802Z,239.93
2022-09-17T02:12:22.181Z,228.50
2022-09-17T02:14:51.590Z,209.20
2022-09-17T02:17:25.149Z,243.57
2022-09-17T02:19:53.604Z,230.10
2022-09-17T02:22:24.631Z,237.33
2022-09-17T02:25:01.989Z,241.13
2022-09-17T02:27:37.746Z,248.57
2022-09-17T02:30:06.420Z,234.37
2022-09-17T02:32:35.419Z,231.03
2022-09-17T02:35:02.998Z,256.73
2022-09-17T02:37:30.512Z,248.17
2022-09-17T02:39:58.107Z,264.80
2022-09-17T02:42:33.267Z,256.83
2022-09-17T02:45:05.886Z,245.00
2022-09-17T02:47:54.736Z,258.43
2022-09-17T02:50:30.494Z,246.33
2022-09-17T02:53:08.666Z,246.87
2022-09-17T02:55:41.519Z,257.03
2022-09-17T02:58:18.679Z,243.00
2022-09-17T03:00:46.850Z,248.67
2022-09-17T03:03:18.668Z,252.87
2022-09-17T03:05:46.986Z,201.97
2022-09-17T03:08:15.463Z,244.37
2022-09-17T03:10:43.140Z,244.47
2022-09-17T03:13:10.631Z,246.97
2022-09-17T03:15:38.155Z,242.80
2022-09-17T03:18:05.747Z,254.90
2022-09-17T03:20:34.583Z,255.97
2022-09-17T03:23:02.091Z,247.63
2022-09-17T03:25:29.570Z,253.37
2022-09-17T03:27:57.040Z,252.67
2022-09-17T03:30:24.543Z,243.60
2022-09-17T03:32:52.055Z,247.00
2022-09-17T03:35:19.689Z,257.10
2022-09-17T03:37:48.658Z,256.23
2022-09-17T03:40:16.336Z,247.67
2022-09-17T03:42:43.864Z,261.20
2022-09-17T03:45:11.786Z,236.17
2022-09-17T03:47:39.283Z,250.20
2022-09-17T03:50:08.363Z,237.77
2022-09-17T03:52:36.229Z,232.50
2022-09-17T03:55:05.820Z,244.80
2022-09-17T03:57:33.307Z,256.03
2022-09-17T04:00:00.789Z,241.07
2022-09-17T04:02:28.535Z,239.43
2022-09-17T04:04:56.522Z,238.83
2022-09-17T04:07:24.040Z,245.00
2022-09-17T04:09:51.534Z,250.10
2022-09-17T04:12:21.039Z,246.70
2022-09-17T04:14:48.553Z,243.57
2022-09-17T04:17:18.092Z,245.23
2022-09-17T04:19:45.680Z,247.63
2022-09-17T04:22:13.344Z,246.20
2022-09-17T04:24:40.828Z,249.83
2022-09-17T04:27:08.338Z,253.73
2022-09-17T04:29:37.200Z,252.87
2022-09-17T04:32:04.827Z,257.73
2022-09-17T04:34:33.051Z,253.87
2022-09-17T04:37:00.542Z,254.53
2022-09-17T04:39:28.055Z,252.93
2022-09-17T04:41:56.039Z,256.07
2022-09-17T04:44:23.563Z,256.03
2022-09-17T04:46:52.490Z,259.43
2022-09-17T04:49:20.027Z,262.97
2022-09-17T04:51:47.527Z,252.57
2022-09-17T04:54:15.136Z,259.10
2022-09-17T04:56:42.632Z,258.80
2022-09-17T04:59:10.199Z,256.97
2022-09-17T05:01:37.760Z,258.73
2022-09-17T05:04:06.656Z,263.17
2022-09-17T05:06:34.194Z,260.07
2022-09-17T05:09:02.031Z,266.07
2022-09-17T05:11:29.909Z,262.60
2022-09-17T05:13:57.436Z,265.70
2022-09-17T05:16:25.064Z,265.97
2022-09-17T05:18:52.699Z,259.23
2022-09-17T05:21:21.588Z,259.10
2022-09-17T05:23:49.067Z,263.43
2022-09-17T05:26:16.724Z,257.77
2022-09-17T05:28:44.268Z,268.30
2022-09-17T05:31:11.898Z,262.40
2022-09-17T05:33:39.499Z,276.53
2022-09-17T05:36:08.054Z,263.20
2022-09-17T05:38:36.879Z,258.33
2022-09-17T05:41:06.093Z,281.53
2022-09-17T05:43:34.042Z,261.40
2022-09-17T05:46:05.752Z,261.97
2022-09-17T05:48:33.348Z,261.20
2022-09-17T05:51:00.913Z,277.27
2022-09-17T05:53:28.647Z,258.60
2022-09-17T05:55:58.808Z,265.93
2022-09-17T05:58:27.004Z,269.87
2022-09-17T06:00:54.555Z,273.97
2022-09-17T06:03:23.491Z,264.03
2022-09-17T06:05:55.408Z,263.43
2022-09-17T06:08:23.008Z,266.87
2022-09-17T06:10:50.647Z,270.50
2022-09-17T06:13:20.062Z,259.13
2022-09-17T06:15:51.237Z,270.50
2022-09-17T06:18:18.954Z,266.20
2022-09-17T06:20:53.766Z,268.60
2022-09-17T06:23:21.320Z,267.27
2022-09-17T06:25:52.564Z,268.27
2022-09-17T06:28:21.405Z,277.83
2022-09-17T06:30:49.348Z,272.27
2022-09-17T06:33:16.831Z,264.63
2022-09-17T06:35:44.340Z,278.33
2022-09-17T06:38:11.831Z,266.40
2022-09-17T06:40:39.421Z,276.77
2022-09-17T06:43:07.339Z,272.77
2022-09-17T06:45:36.199Z,274.30
2022-09-17T06:48:06.158Z,273.77
2022-09-17T06:50:33.671Z,276.60
2022-09-17T06:53:01.179Z,273.43
2022-09-17T06:55:29.031Z,284.70
2022-09-17T06:57:59.884Z,279.47
2022-09-17T07:00:27.993Z,277.33
2022-09-17T07:03:00.647Z,275.10
2022-09-17T07:05:29.355Z,282.40
2022-09-17T07:07:57.063Z,177.60
2022-09-17T07:10:24.774Z,212.70
2022-09-17T07:12:52.400Z,217.20
2022-09-17T07:15:20.359Z,227.63
2022-09-17T07:17:47.892Z,210.10
2022-09-17T07:20:17.064Z,195.13
2022-09-17T07:22:44.930Z,184.57
2022-09-17T07:25:12.923Z,211.67
2022-09-17T07:27:40.442Z,244.80
2022-09-17T07:30:09.075Z,221.57
2022-09-17T07:32:36.588Z,223.00
2022-09-17T07:35:04.264Z,240.67
2022-09-17T07:37:33.123Z,246.00
2022-09-17T07:40:00.763Z,222.60
2022-09-17T07:42:28.379Z,241.87
2022-09-17T07:45:01.210Z,249.00
2022-09-17T07:47:29.526Z,232.13
2022-09-17T07:49:57.014Z,257.70
2022-09-17T07:52:24.684Z,253.90
2022-09-17T07:54:53.523Z,254.43
2022-09-17T07:57:21.004Z,251.13
2022-09-17T07:59:49.491Z,249.70
2022-09-17T08:02:21.876Z,232.83
2022-09-17T08:04:51.402Z,241.63
2022-09-17T08:07:18.991Z,230.57
2022-09-17T08:09:46.491Z,219.33
2022-09-17T08:12:15.347Z,211.50
2022-09-17T08:14:42.871Z,222.53
2022-09-17T08:17:10.443Z,220.57
2022-09-17T08:19:37.943Z,230.63
2022-09-17T08:22:05.563Z,235.30
2022-09-17T08:24:33.067Z,221.33
2022-09-17T08:27:00.559Z,216.37
2022-09-17T08:29:34.478Z,237.83
2022-09-17T08:32:03.075Z,251.20
2022-09-17T08:34:30.570Z,256.60
2022-09-17T08:36:58.072Z,244.37
2022-09-17T08:39:25.619Z,230.60
2022-09-17T08:41:57.084Z,259.00
2022-09-17T08:44:27.720Z,270.73
2022-09-17T08:47:00.292Z,255.33
2022-09-17T08:49:34.194Z,251.03
2022-09-17T08:52:30.745Z,259.27
2022-09-17T08:55:04.185Z,271.53
2022-09-17T08:57:39.150Z,277.70
2022-09-17T09:00:11.510Z,249.23
2022-09-17T09:02:53.329Z,242.03
2022-09-17T09:05:22.786Z,241.53
2022-09-17T09:07:53.358Z,247.57
2022-09-17T09:10:24.569Z,321.23
2022-09-17T09:12:52.713Z,240.57
2022-09-17T09:15:28.203Z,238.40
2022-09-17T09:17:58.480Z,247.33
2022-09-17T09:20:32.097Z,238.07
2022-09-17T09:23:03.907Z,254.13
2022-09-17T09:25:35.392Z,261.93
2022-09-17T09:28:18.114Z,243.70
2022-09-17T09:30:54.504Z,261.63
2022-09-17T09:33:28.103Z,260.93
2022-09-17T09:35:55.631Z,252.07
2022-09-17T09:38:30.731Z,255.40
2022-09-17T09:41:03.672Z,316.67
2022-09-17T09:44:00.009Z,259.27
2022-09-17T09:46:52.340Z,251.87
2022-09-17T09:49:31.042Z,233.47
2022-09-17T09:52:07.284Z,246.70
2022-09-17T09:54:44.784Z,248.23
2022-09-17T09:57:14.832Z,241.47
2022-09-17T09:59:42.346Z,243.67
2022-09-17T10:02:10.319Z,243.07
2022-09-17T10:04:39.390Z,273.87
2022-09-17T10:07:08.413Z,255.53
2022-09-17T10:09:37.575Z,254.40
2022-09-17T10:12:19.254Z,260.73
2022-09-17T10:14:47.475Z,248.07
2022-09-17T10:17:21.500Z,273.07
2022-09-17T10:20:14.316Z,257.87
2022-09-17T10:22:42.451Z,261.90
2022-09-17T10:25:24.052Z,264.90
2022-09-17T10:27:51.594Z,260.33
2022-09-17T10:30:20.407Z,253.53
2022-09-17T10:33:12.904Z,254.83
2022-09-17T10:35:41.799Z,256.00
2022-09-17T10:38:28.147Z,249.90
2022-09-17T10:41:09.682Z,294.13
2022-09-17T10:43:37.580Z,259.30
2022-09-17T10:46:06.234Z,255.67
2022-09-17T10:48:37.813Z,260.60
2022-09-17T10:51:08.760Z,268.30
2022-09-17T10:53:53.672Z,279.97
2022-09-17T10:56:24.247Z,262.23
2022-09-17T10:58:57.948Z,260.83
2022-09-17T11:01:34.238Z,262.50
2022-09-17T11:04:15.103Z,255.57
2022-09-17T11:07:11.230Z,257.97
2022-09-17T11:09:48.098Z,269.57
2022-09-17T11:12:29.978Z,263.33
2022-09-17T11:15:02.926Z,267.07
2022-09-17T11:17:44.712Z,275.97
2022-09-17T11:20:22.866Z,263.63
2022-09-17T11:23:01.492Z,262.53
2022-09-17T11:25:42.127Z,272.50
2022-09-17T11:28:21.203Z,268.43
2022-09-17T11:30:57.685Z,261.80
2022-09-17T11:33:52.311Z,252.07
2022-09-17T11:36:22.402Z,253.90
2022-09-17T11:38:52.139Z,270.50
2022-09-17T11:41:22.506Z,258.23
2022-09-17T11:43:55.321Z,258.33
2022-09-17T11:46:26.240Z,255.73
2022-09-17T11:48:56.672Z,259.57
2022-09-17T11:51:29.072Z,261.97
2022-09-17T11:54:01.938Z,270.93
2022-09-17T11:56:32.286Z,262.70
2022-09-17T11:59:03.810Z,262.47
2022-09-17T12:01:36.917Z,270.07
2022-09-17T12:04:28.705Z,264.87
2022-09-17T12:07:00.084Z,263.70
2022-09-17T12:09:30.882Z,282.60
2022-09-17T12:12:01.787Z,278.20
2022-09-17T12:14:32.194Z,282.90
2022-09-17T12:17:01.269Z,303.20
2022-09-17T12:19:32.419Z,232.23
2022-09-17T12:22:02.946Z,253.30
2022-09-17T12:24:32.505Z,222.60
2022-09-17T12:27:10.024Z,282.13
2022-09-17T12:30:05.235Z,232.10
2022-09-17T12:32:47.964Z,287.47
2022-09-17T12:35:23.634Z,219.30
2022-09-17T12:38:03.299Z,220.40
2022-09-17T12:40:33.617Z,268.60
2022-09-17T12:43:14.298Z,239.43
2022-09-17T12:45:53.364Z,241.30
2022-09-17T12:48:34.151Z,237.47
2022-09-17T12:51:12.094Z,249.80
2022-09-17T12:53:44.227Z,230.87
2022-09-17T12:56:23.307Z,228.70
2022-09-17T12:59:05.997Z,248.77
2022-09-17T13:01:37.224Z,273.70
2022-09-17T13:04:15.868Z,283.33
2022-09-17T13:07:03.565Z,280.53
2022-09-17T13:10:00.796Z,287.43
2022-09-17T13:12:33.044Z,278.47
2022-09-17T13:15:38.784Z,284.70
2022-09-17T13:18:26.199Z,283.53
2022-09-17T13:21:03.769Z,276.97
2022-09-17T13:23:37.071Z,292.07
2022-09-17T13:26:06.711Z,299.77
2022-09-17T13:28:46.932Z,301.30
2022-09-17T13:31:20.739Z,308.87
2022-09-17T13:33:53.398Z,296.57
2022-09-17T13:36:42.124Z,300.50
2022-09-17T13:39:11.002Z,305.07
2022-09-17T13:41:40.968Z,301.77
2022-09-17T13:44:12.423Z,301.83
2022-09-17T13:46:40.393Z,297.63
2022-09-17T13:49:14.725Z,279.43
2022-09-17T13:51:50.959Z,297.27
2022-09-17T13:54:20.443Z,294.97
2022-09-17T13:56:50.363Z,291.60
2022-09-17T13:59:22.768Z,280.97
2022-09-17T14:02:04.720Z,285.20
2022-09-17T14:04:51.043Z,294.80
2022-09-17T14:07:47.170Z,288.80
2022-09-17T14:10:37.464Z,302.00
2022-09-17T14:13:44.278Z,298.13
2022-09-17T14:16:35.444Z,302.70
2022-09-17T14:19:05.536Z,302.33
2022-09-17T14:21:33.944Z,306.30
2022-09-17T14:24:03.203Z,311.87
2022-09-17T14:26:58.047Z,283.50
2022-09-17T14:29:34.936Z,286.60
2022-09-17T14:32:03.882Z,280.10
2022-09-17T14:34:32.668Z,285.30
2022-09-17T14:37:00.345Z,282.13
2022-09-17T14:39:30.581Z,291.77
2022-09-17T14:41:58.082Z,292.47
2022-09-17T14:44:27.237Z,295.03
2022-09-17T14:46:57.549Z,303.67
2022-09-17T14:49:28.023Z,296.60
2022-09-17T14:51:56.395Z,298.07
2022-09-17T14:54:26.125Z,293.80
2022-09-17T14:56:59.453Z,271.10
2022-09-17T14:59:34.198Z,287.93
2022-09-17T15:02:01.787Z,277.63
2022-09-17T15:04:30.650Z,290.43
2022-09-17T15:07:07.851Z,283.10
2022-09-17T15:09:35.403Z,298.13
2022-09-17T15:12:03.720Z,286.40
2022-09-17T15:14:33.965Z,278.47
2022-09-17T15:17:02.803Z,281.47
2022-09-17T15:19:35.779Z,277.63
2022-09-17T15:22:07.902Z,271.13
2022-09-17T15:24:40.844Z,284.57
2022-09-17T15:27:13.319Z,284.30
2022-09-17T15:29:43.759Z,277.53
2022-09-17T15:32:13.724Z,320.03
2022-09-17T15:34:42.639Z,287.63
2022-09-17T15:37:18.448Z,263.50
2022-09-17T15:39:51.031Z,278.30
2022-09-17T15:42:21.227Z,267.30
2022-09-17T15:44:48.829Z,289.93
2022-09-17T15:47:35.531Z,274.70
2022-09-17T15:50:15.692Z,280.83
2022-09-17T15:52:43.498Z,275.03
2022-09-17T15:55:31.201Z,283.07
2022-09-17T15:57:59.291Z,276.70
2022-09-17T16:00:26.987Z,287.43
2022-09-17T16:02:55.482Z,283.10
2022-09-17T16:05:55.624Z,280.47
2022-09-17T16:08:25.052Z,280.00
2022-09-17T16:10:53.013Z,298.90
2022-09-17T16:13:23.150Z,278.57
2022-09-17T16:15:52.825Z,291.27
2022-09-17T16:18:20.464Z,283.23
2022-09-17T16:20:47.988Z,284.23
2022-09-17T16:23:16.827Z,285.70
2022-09-17T16:25:44.344Z,286.83
2022-09-17T16:28:14.453Z,285.70
2022-09-17T16:30:44.951Z,292.17
2022-09-17T16:33:14.266Z,287.50
2022-09-17T16:35:42.503Z,278.80
2022-09-17T16:38:11.443Z,282.87
2022-09-17T16:40:42.961Z,284.53
2022-09-17T16:43:10.860Z,282.90
2022-09-17T16:45:38.403Z,285.77
2022-09-17T16:48:06.654Z,274.07
2022-09-17T16:50:34.700Z,282.43
2022-09-17T16:53:05.389Z,289.47
2022-09-17T16:55:33.335Z,284.77
2022-09-17T16:58:02.970Z,288.77
2022-09-17T17:00:30.504Z,287.83
2022-09-17T17:02:58.601Z,289.13
2022-09-17T17:05:27.365Z,277.33
2022-09-17T17:07:55.884Z,274.23
2022-09-17T17:10:24.286Z,326.00
2022-09-17T17:12:52.412Z,273.33
2022-09-17T17:15:22.400Z,270.50
2022-09-17T17:17:49.917Z,280.63
2022-09-17T17:20:17.861Z,277.57
2022-09-17T17:22:45.943Z,272.50
2022-09-17T17:25:15.018Z,267.27
2022-09-17T17:27:44.349Z,267.73
2022-09-17T17:30:16.726Z,268.67
2022-09-17T17:32:49.779Z,283.13
2022-09-17T17:35:17.355Z,265.50
2022-09-17T17:37:44.879Z,269.53
2022-09-17T17:40:12.654Z,376.00
2022-09-17T17:42:43.743Z,260.77
2022-09-17T17:45:12.235Z,265.87
2022-09-17T17:47:39.756Z,267.90
2022-09-17T17:50:10.519Z,266.00
2022-09-17T17:52:39.001Z,272.63
2022-09-17T17:55:07.340Z,261.83
2022-09-17T17:57:34.833Z,262.23
2022-09-17T18:00:03.103Z,264.07
2022-09-17T18:02:30.748Z,262.77
2022-09-17T18:05:03.415Z,265.40
2022-09-17T18:07:33.546Z,271.60
2022-09-17T18:10:01.052Z,255.47
2022-09-17T18:12:28.568Z,262.60
2022-09-17T18:14:56.097Z,263.40
2022-09-17T18:17:23.600Z,263.17
2022-09-17T18:19:51.320Z,258.73
2022-09-17T18:22:19.238Z,260.23
2022-09-17T18:24:48.089Z,256.43
2022-09-17T18:27:15.667Z,254.80
2022-09-17T18:29:43.196Z,258.00
2022-09-17T18:32:10.724Z,252.93
2022-09-17T18:34:38.217Z,259.10
2022-09-17T18:37:05.735Z,249.97
2022-09-17T18:39:57.452Z,261.03
2022-09-17T18:42:22.116Z,254.00
2022-09-17T18:44:49.617Z,252.37
2022-09-17T18:47:17.599Z,252.63
2022-09-17T18:49:45.100Z,255.37
2022-09-17T18:52:12.609Z,247.80
2022-09-17T18:54:40.114Z,258.07
2022-09-17T18:57:07.624Z,253.10
2022-09-17T18:59:36.451Z,253.57
2022-09-17T19:02:04.098Z,252.50
2022-09-17T19:04:31.767Z,267.53
2022-09-17T19:06:59.273Z,255.13
2022-09-17T19:09:26.764Z,253.87
2022-09-17T19:11:54.326Z,266.37
2022-09-17T19:14:21.928Z,254.07
2022-09-17T19:16:50.790Z,252.50
2022-09-17T19:19:18.311Z,246.53
2022-09-17T19:21:45.831Z,248.83
2022-09-17T19:24:13.331Z,250.17
2022-09-17T19:26:40.839Z,261.27
2022-09-17T19:29:08.979Z,249.00
2022-09-17T19:31:36.535Z,268.43
2022-09-17T19:34:05.489Z,260.80
2022-09-17T19:36:33.967Z,260.90
2022-09-17T19:39:01.487Z,255.73
2022-09-17T19:41:31.311Z,274.17
2022-09-17T19:43:58.898Z,274.00
2022-09-17T19:46:27.310Z,259.53
2022-09-17T19:48:56.996Z,294.90
2022-09-17T19:51:28.135Z,263.63
2022-09-17T19:53:55.654Z,259.03
2022-09-17T19:56:24.851Z,258.53
2022-09-17T19:58:52.891Z,233.53
2022-09-17T20:01:20.690Z,249.40
2022-09-17T20:03:48.635Z,254.60
2022-09-17T20:06:17.843Z,251.27
2022-09-17T20:08:47.498Z,254.23
2022-09-17T20:11:15.685Z,245.40
2022-09-17T20:13:43.292Z,246.90
2022-09-17T20:16:12.732Z,256.07
2022-09-17T20:18:40.265Z,257.93
2022-09-17T20:21:08.998Z,253.70
2022-09-17T20:23:36.516Z,256.03
2022-09-17T20:26:06.251Z,249.60
2022-09-17T20:28:34.122Z,257.03
2022-09-17T20:31:02.616Z,267.40
2022-09-17T20:33:30.396Z,251.97
2022-09-17T20:35:59.316Z,244.27
2022-09-17T20:39:10.032Z,247.40
2022-09-17T20:41:16.292Z,246.07
2022-09-17T20:43:45.602Z,245.93
2022-09-17T20:46:14.382Z,282.47
2022-09-17T20:48:42.124Z,244.17
2022-09-17T20:51:12.139Z,246.20
2022-09-17T20:53:39.849Z,248.63
2022-09-17T20:56:09.126Z,245.50
2022-09-17T20:58:45.260Z,254.80
2022-09-17T21:01:15.336Z,240.50
2022-09-17T21:03:44.228Z,238.17
2022-09-17T21:06:16.759Z,247.97
2022-09-17T21:08:44.566Z,246.80
2022-09-17T21:11:12.240Z,249.23
2022-09-17T21:13:41.606Z,250.27
2022-09-17T21:16:09.840Z,242.63
2022-09-17T21:18:39.728Z,247.80
2022-09-17T21:21:08.828Z,249.57
2022-09-17T21:23:40.687Z,254.90
2022-09-17T21:26:11.365Z,246.50
2022-09-17T21:28:39.280Z,243.53
2022-09-17T21:31:11.081Z,258.63
2022-09-17T21:33:38.650Z,237.73
2022-09-17T21:36:08.115Z,252.73
2022-09-17T21:38:35.685Z,239.53
2022-09-17T21:41:04.755Z,249.47
2022-09-17T21:43:32.737Z,248.67
2022-09-17T21:46:01.490Z,228.03
2022-09-17T21:48:30.696Z,260.67
2022-09-17T21:51:06.374Z,263.67
2022-09-17T21:53:34.012Z,233.80
2022-09-17T21:56:06.253Z,249.00
2022-09-17T21:58:34.179Z,245.53
2022-09-17T22:01:07.019Z,258.03
2022-09-17T22:03:36.027Z,244.03
2022-09-17T22:06:05.687Z,247.17
2022-09-17T22:08:33.946Z,241.07
2022-09-17T22:11:07.147Z,264.07
2022-09-17T22:13:35.127Z,238.67
2022-09-17T22:16:04.809Z,250.23
2022-09-17T22:18:32.480Z,247.57
2022-09-17T22:21:01.699Z,271.20
2022-09-17T22:23:29.196Z,244.47
2022-09-17T22:26:03.439Z,247.27
2022-09-17T22:28:31.168Z,252.73
2022-09-17T22:31:02.533Z,261.80
2022-09-17T22:33:32.928Z,247.57
2022-09-17T22:36:06.507Z,251.37
2022-09-17T22:38:34.060Z,241.90
2022-09-17T22:41:06.318Z,252.13
2022-09-17T22:43:33.908Z,243.43
2022-09-17T22:46:01.758Z,257.73
2022-09-17T22:48:29.335Z,244.53
2022-09-17T22:50:56.834Z,293.33
2022-09-17T22:53:25.915Z,263.50
2022-09-17T22:55:56.830Z,237.53
2022-09-17T22:58:24.830Z,226.63
2022-09-17T23:00:53.670Z,237.40
2022-09-17T23:03:21.634Z,243.67
2022-09-17T23:05:49.188Z,237.73
2022-09-17T23:08:16.710Z,233.77
2022-09-17T23:10:45.562Z,238.33
2022-09-17T23:13:13.082Z,234.47
2022-09-17T23:15:40.791Z,231.00
2022-09-17T23:18:08.508Z,238.57
2022-09-17T23:20:36.041Z,238.03
2022-09-17T23:23:03.550Z,227.93
2022-09-17T23:25:31.119Z,248.57
2022-09-17T23:28:00.088Z,234.67
2022-09-17T23:30:28.779Z,253.93
2022-09-17T23:32:57.252Z,240.27
2022-09-17T23:35:25.667Z,241.17
2022-09-17T23:37:53.166Z,237.00
2022-09-17T23:40:21.978Z,246.03
2022-09-17T23:42:49.596Z,239.37
2022-09-17T23:45:18.824Z,243.37
2022-09-17T23:47:46.511Z,229.30
2022-09-17T23:50:14.100Z,232.07
2022-09-17T23:52:41.935Z,232.60
2022-09-17T23:55:10.110Z,236.87
2022-09-17T23:57:38.996Z,240.93
